Terminal Aerodrome Forecast
Issued by NWS Raleigh/Durham, NC

Home | Current Version | Previous Version | Text Only | Print | Product List | Glossary On
Versions: 1 2 3 4 5 6 7 8 9 10 11 12 13 14 15 16 17 18 19 20 21 22 23 24 25 26 27
000
FTUS42 KRAH 211120
TAFFAY
TAF
KFAY 211120Z 2112/2212 VRB05KT P6SM OVC005
      TEMPO 2112/2113 5SM BR OVC008
     FM211300 VRB05KT P6SM BKN012
     FM211430 VRB05KT P6SM FEW018 SCT035 BKN150
     FM211700 VRB05KT P6SM VCTS BKN045CB BKN150 BKN250
     FM212300 VRB04KT P6SM FEW060 BKN200
      TEMPO 2208/2212 5SM BR=

USA.gov is the U.S. government's official web portal to all federal, state and local government web resources and services.